This is the latest recevied weather packets stored in our database for station/object DB0TV-13. If no packets are shown the sender has not sent any weather packets the latest 10 day(s).
| Time | Temp. | Humidity | Pressure | Rain* | Wind** | Luminosity | Snow |
|---|---|---|---|---|---|---|---|
| 1777552820 | 17.22° C | 26% | 1027.4 hPa | 0 mm | - | 795 W/m² | - |
| 1777552220 | 17.22° C | 25% | 1027.5 hPa | 0 mm | - | 801 W/m² | - |
| 1777551620 | 17.22° C | 25% | 1027.4 hPa | 0 mm | - | 809 W/m² | - |
| 1777551020 | 16.67° C | 27% | 1027.6 hPa | 0 mm | - | 814 W/m² | - |
| 1777550420 | 16.67° C | 26% | 1027.5 hPa | 0 mm | - | 815 W/m² | - |
| 1777549820 | 16.67° C | 25% | 1027.6 hPa | 0 mm | - | 823 W/m² | - |
| 1777549220 | 16.67° C | 26% | 1027.7 hPa | 0 mm | - | 827 W/m² | - |
| 1777548619 | 16.67° C | 25% | 1027.7 hPa | 0 mm | - | 830 W/m² | - |
| 1777548019 | 16.11° C | 27% | 1027.8 hPa | 0 mm | - | 830 W/m² | - |
| 1777547420 | 16.11° C | 25% | 1027.9 hPa | 0 mm | - | 829 W/m² | - |
| 1777546819 | 16.11° C | 26% | 1028 hPa | 0 mm | - | 824 W/m² | - |
| 1777546220 | 16.11° C | 27% | 1028.1 hPa | 0 mm | - | 816 W/m² | - |
| 1777545619 | 15.56° C | 27% | 1028 hPa | 0 mm | - | 807 W/m² | - |
| 1777545020 | 15.56° C | 25% | 1028.2 hPa | 0 mm | - | 802 W/m² | - |
| 1777544420 | 15.56° C | 27% | 1028.3 hPa | 0 mm | - | 798 W/m² | - |
| 1777543820 | 15.56° C | 24% | 1028.3 hPa | 0 mm | - | 790 W/m² | - |
| 1777543219 | 14.44° C | 27% | 1028.2 hPa | 0 mm | - | 780 W/m² | - |
| 1777542620 | 14.44° C | 26% | 1028.2 hPa | 0 mm | - | 766 W/m² | - |
| 1777542020 | 14.44° C | 28% | 1028.3 hPa | 0 mm | - | 755 W/m² | - |
| 1777541419 | 13.89° C | 28% | 1028.3 hPa | 0 mm | - | 735 W/m² | - |
| 1777540819 | 13.33° C | 28% | 1028.3 hPa | 0 mm | - | 716 W/m² | - |
| 1777540219 | 12.78° C | 30% | 1028.4 hPa | 0 mm | - | 704 W/m² | - |
| 1777539619 | 12.78° C | 29% | 1028.5 hPa | 0 mm | - | 681 W/m² | - |
| 1777539019 | 12.78° C | 31% | 1028.6 hPa | 0 mm | - | 663 W/m² | - |
| 1777538420 | 12.22° C | 32% | 1028.6 hPa | 0 mm | - | 640 W/m² | - |
* Rain latest hour (hover to see other rain measurements)
** Current wind speed in m/s (hover to see current wind gust speed)